Terminal Aerodrome Forecast
Issued by NWS

Home | Current Version | Previous Version | Text Only | Print | Product List | Glossary On
Versions: 1 2 3 4 5 6 7 8 9 10 11 12 13 14 15 16 17 18 19
000
FTUS43 KBIS 091720
TAFDIK
TAF
KDIK 091720Z 0918/1018 30011KT P6SM OVC050
     FM092300 31008KT P6SM VCSH OVC035
     FM100700 22006KT P6SM OVC050=

USA.gov is the U.S. government's official web portal to all federal, state and local government web resources and services.